Weather at Gardner Municipal Airport

Public forecast

Using degrees Fahrenheit for public forecast. Weather courtesy of forecast.io.

Closest aviation weather report (METAR) to Gardner Municipal Airport

Closest report is Fitchburg Municipal Airport, 11.4 nm (21.1 km) E. Retrieved 2020/09/29 22:52 UTC (16 minutes ago):

KFIT 292252Z AUTO 15008KT 10SM OVC024 23/19 A2984 RMK AO2 RAB34E44 SLP104 P0000 T02280189

Closest aviation forecast (TAF) to Gardner Municipal Airport

Closest forecast is Worcester Regional Airport, 18.1 nm (33.5 km) SSE. Retrieved 2020/09/29 18:30 UTC (5 hours ago):

TAF KORH 291729Z 2918/3018 19009KT P6SM BKN060 BKN080 FM291900 19008KT P6SM BKN030 FM300000 18007KT 6SM BR OVC008 FM300600 17010G26KT 3SM -RA BR OVC003 FM301300 22012G34KT 3SM RA BR OVC008 FM301500 25011G23KT P6SM VCSH BKN008